Princeton, British Columbia

12:22 PM PST on November 23, 2014 (GMT -0800)
Princeton | Change Station
CLOSE
Current Station
Airport
Location: Princeton Airport,
Elevation: 2297 ft
Nearby Weather Stations

Elev 2297 ft 49.47 °N, 120.51 °W | Updated 22 minutes ago

Light Snow
Light Snow
32 °F
Feels Like 26 °F
N
7
Wind Variable Wind from SSE

Today is forecast to be nearly the same temperature as yesterday.

Today
High -- | Low -- °F
--% Chance of Precip.
Yesterday
High -- | Low -- °F
Precip. -- in
7:25 AM 4:11 PM
New Moon, 2% visible
Pressure 29.99 in
Visibility 1.0 miles
Clouds
Windchill 26 °F
Dew Point 32 °F
Humidity 100%
Rainfall 0.00 in
Snow Depth Not available.
UV Not available.
Pollen Not available.
Air Quality Not available.
Flu Activity Not available.
METAR CYDC 232000Z 15006KT 140V250 1SM -SN VV009 00/M00 A2992 RMK SN8 VIS VRB 3/4 - 11/4 PRESFR SLP156

More Conditions Fewer Conditions

Pressure 29.99 in
Visibility 1.0 miles
Clouds
Windchill 26 °F
Dew Point 32 °F
Humidity 100%
Rainfall 0.00 in
Snow Depth Not available.
UV Not available.
Pollen Not available.
Air Quality Not available.
Flu Activity Not available.
METAR CYDC 232000Z 15006KT 140V250 1SM -SN VV009 00/M00 A2992 RMK SN8 VIS VRB 3/4 - 11/4 PRESFR SLP156

More Conditions Fewer Conditions

10-Day Weather Forecast

Almanac

Astronomy

Nov. 23, 2014 Rise Set
Actual Time
Civil Twilight
Nautical Twilight
Astronomical Twilight
Moon
Length of Visible Light
Length of Day
Tomorrow will be .
, % of the Moon is Illuminated

Today's Extremes

Country Highs Country Lows

Community

WunderPhotos

Upload Photos

1,773,169 photos uploaded!

WunderBlogs® & News

Nearby

Air Quality

  Air Quality AQ Index Pollutant
Not available.

Snow Depth

Station Depth Elevation

Earthquake Activity

City Distance Mag. Time & Date
Minimum magnitude displayed is 2.5.

Coastal Water Temperatures

Place Temperature

Nearby Weather Stations